sensor_id;sensor_type;location;lat;lon;timestamp;P1;durP1;ratioP1;P2;durP2;ratioP2
52776;SDS011;38656;54.260;20.822;2023-07-29T00:01:53;27.05;;;24.52;;
52776;SDS011;38656;54.260;20.822;2023-07-29T00:04:19;27.38;;;24.20;;
52776;SDS011;38656;54.260;20.822;2023-07-29T00:06:45;30.05;;;26.67;;
52776;SDS011;38656;54.260;20.822;2023-07-29T00:09:11;31.00;;;27.20;;
52776;SDS011;38656;54.260;20.822;2023-07-29T00:11:37;31.88;;;27.23;;
52776;SDS011;38656;54.260;20.822;2023-07-29T00:14:03;30.90;;;27.60;;
52776;SDS011;38656;54.260;20.822;2023-07-29T00:16:30;29.65;;;26.48;;
52776;SDS011;38656;54.260;20.822;2023-07-29T00:18:56;31.13;;;28.05;;
52776;SDS011;38656;54.260;20.822;2023-07-29T00:21:22;29.85;;;26.92;;
52776;SDS011;38656;54.260;20.822;2023-07-29T00:23:48;35.95;;;29.00;;
52776;SDS011;38656;54.260;20.822;2023-07-29T00:26:14;45.75;;;27.58;;
52776;SDS011;38656;54.260;20.822;2023-07-29T00:28:40;36.95;;;26.17;;
52776;SDS011;38656;54.260;20.822;2023-07-29T00:31:06;28.85;;;25.90;;
52776;SDS011;38656;54.260;20.822;2023-07-29T00:33:32;30.08;;;27.27;;
52776;SDS011;38656;54.260;20.822;2023-07-29T00:35:58;26.67;;;23.85;;
52776;SDS011;38656;54.260;20.822;2023-07-29T00:38:26;28.08;;;24.63;;
52776;SDS011;38656;54.260;20.822;2023-07-29T00:40:52;30.98;;;24.45;;
52776;SDS011;38656;54.260;20.822;2023-07-29T00:43:18;29.25;;;26.40;;
52776;SDS011;38656;54.260;20.822;2023-07-29T00:45:45;29.40;;;26.38;;
52776;SDS011;38656;54.260;20.822;2023-07-29T00:48:12;32.97;;;27.30;;
52776;SDS011;38656;54.260;20.822;2023-07-29T00:50:38;27.98;;;25.33;;
52776;SDS011;38656;54.260;20.822;2023-07-29T00:53:04;30.10;;;26.73;;
52776;SDS011;38656;54.260;20.822;2023-07-29T00:55:31;69.40;;;29.25;;
52776;SDS011;38656;54.260;20.822;2023-07-29T00:57:57;41.42;;;28.35;;
52776;SDS011;38656;54.260;20.822;2023-07-29T01:00:23;160.55;;;30.00;;
52776;SDS011;38656;54.260;20.822;2023-07-29T01:02:49;138.43;;;30.42;;
52776;SDS011;38656;54.260;20.822;2023-07-29T01:05:17;192.32;;;30.45;;
52776;SDS011;38656;54.260;20.822;2023-07-29T01:15:10;126.97;;;31.73;;
52776;SDS011;38656;54.260;20.822;2023-07-29T01:17:40;177.23;;;33.90;;
52776;SDS011;38656;54.260;20.822;2023-07-29T01:20:08;119.22;;;31.92;;
52776;SDS011;38656;54.260;20.822;2023-07-29T01:22:35;164.85;;;35.42;;
52776;SDS011;38656;54.260;20.822;2023-07-29T01:25:02;156.00;;;38.35;;
52776;SDS011;38656;54.260;20.822;2023-07-29T01:27:28;123.25;;;33.63;;
52776;SDS011;38656;54.260;20.822;2023-07-29T01:29:55;199.02;;;30.63;;
52776;SDS011;38656;54.260;20.822;2023-07-29T01:32:58;264.88;;;31.77;;
52776;SDS011;38656;54.260;20.822;2023-07-29T01:35:16;276.35;;;31.55;;
52776;SDS011;38656;54.260;20.822;2023-07-29T01:37:47;95.75;;;29.20;;
52776;SDS011;38656;54.260;20.822;2023-07-29T01:40:14;85.90;;;27.95;;
52776;SDS011;38656;54.260;20.822;2023-07-29T01:42:40;99.07;;;28.63;;
52776;SDS011;38656;54.260;20.822;2023-07-29T01:45:07;214.40;;;28.60;;
52776;SDS011;38656;54.260;20.822;2023-07-29T01:47:33;276.02;;;30.38;;
52776;SDS011;38656;54.260;20.822;2023-07-29T01:49:59;221.23;;;27.70;;
52776;SDS011;38656;54.260;20.822;2023-07-29T01:52:25;120.30;;;23.55;;
52776;SDS011;38656;54.260;20.822;2023-07-29T01:54:51;178.18;;;27.85;;
52776;SDS011;38656;54.260;20.822;2023-07-29T01:57:17;104.35;;;26.98;;
52776;SDS011;38656;54.260;20.822;2023-07-29T01:59:43;274.65;;;28.02;;
52776;SDS011;38656;54.260;20.822;2023-07-29T02:02:09;272.02;;;29.88;;
52776;SDS011;38656;54.260;20.822;2023-07-29T02:04:35;324.40;;;30.23;;
52776;SDS011;38656;54.260;20.822;2023-07-29T02:07:01;282.10;;;32.13;;
52776;SDS011;38656;54.260;20.822;2023-07-29T02:09:28;211.63;;;30.40;;
52776;SDS011;38656;54.260;20.822;2023-07-29T02:11:55;220.50;;;31.67;;
52776;SDS011;38656;54.260;20.822;2023-07-29T02:14:22;125.43;;;31.65;;
52776;SDS011;38656;54.260;20.822;2023-07-29T02:16:48;33.95;;;27.35;;
52776;SDS011;38656;54.260;20.822;2023-07-29T02:19:15;26.42;;;24.02;;
52776;SDS011;38656;54.260;20.822;2023-07-29T02:21:41;62.15;;;25.25;;
52776;SDS011;38656;54.260;20.822;2023-07-29T02:24:07;97.93;;;22.77;;
52776;SDS011;38656;54.260;20.822;2023-07-29T02:26:33;293.45;;;32.50;;
52776;SDS011;38656;54.260;20.822;2023-07-29T02:28:59;53.95;;;21.83;;
52776;SDS011;38656;54.260;20.822;2023-07-29T02:31:25;35.85;;;20.92;;
52776;SDS011;38656;54.260;20.822;2023-07-29T02:33:53;88.95;;;20.30;;
52776;SDS011;38656;54.260;20.822;2023-07-29T02:36:19;51.85;;;18.55;;
52776;SDS011;38656;54.260;20.822;2023-07-29T02:38:45;41.28;;;18.58;;
52776;SDS011;38656;54.260;20.822;2023-07-29T02:41:11;42.63;;;19.02;;
52776;SDS011;38656;54.260;20.822;2023-07-29T02:43:38;176.68;;;23.08;;
52776;SDS011;38656;54.260;20.822;2023-07-29T02:46:05;128.68;;;22.45;;
52776;SDS011;38656;54.260;20.822;2023-07-29T02:48:31;82.80;;;22.05;;
52776;SDS011;38656;54.260;20.822;2023-07-29T02:50:57;248.00;;;24.05;;
52776;SDS011;38656;54.260;20.822;2023-07-29T02:53:24;191.52;;;22.25;;
52776;SDS011;38656;54.260;20.822;2023-07-29T02:55:50;300.27;;;26.02;;
52776;SDS011;38656;54.260;20.822;2023-07-29T02:58:16;163.15;;;20.00;;
52776;SDS011;38656;54.260;20.822;2023-07-29T03:00:42;170.23;;;21.40;;
52776;SDS011;38656;54.260;20.822;2023-07-29T03:03:08;97.07;;;18.73;;
52776;SDS011;38656;54.260;20.822;2023-07-29T03:05:34;131.23;;;19.48;;
52776;SDS011;38656;54.260;20.822;2023-07-29T03:08:00;17.35;;;15.60;;
52776;SDS011;38656;54.260;20.822;2023-07-29T03:10:26;45.17;;;15.90;;
52776;SDS011;38656;54.260;20.822;2023-07-29T03:12:56;207.18;;;20.27;;
52776;SDS011;38656;54.260;20.822;2023-07-29T03:15:25;157.73;;;20.77;;
52776;SDS011;38656;54.260;20.822;2023-07-29T03:17:51;167.02;;;24.17;;
52776;SDS011;38656;54.260;20.822;2023-07-29T03:20:18;149.82;;;22.17;;
52776;SDS011;38656;54.260;20.822;2023-07-29T03:22:45;221.40;;;24.65;;
52776;SDS011;38656;54.260;20.822;2023-07-29T03:25:11;154.13;;;24.90;;
52776;SDS011;38656;54.260;20.822;2023-07-29T03:27:37;58.67;;;21.42;;
52776;SDS011;38656;54.260;20.822;2023-07-29T03:30:04;144.63;;;23.27;;
52776;SDS011;38656;54.260;20.822;2023-07-29T03:32:31;24.00;;;20.27;;
52776;SDS011;38656;54.260;20.822;2023-07-29T03:34:57;167.23;;;23.08;;
52776;SDS011;38656;54.260;20.822;2023-07-29T03:37:23;243.40;;;22.33;;
52776;SDS011;38656;54.260;20.822;2023-07-29T03:39:49;138.15;;;24.55;;
52776;SDS011;38656;54.260;20.822;2023-07-29T03:42:17;178.80;;;24.67;;
52776;SDS011;38656;54.260;20.822;2023-07-29T03:44:43;140.38;;;25.35;;
52776;SDS011;38656;54.260;20.822;2023-07-29T03:47:09;226.57;;;28.50;;
52776;SDS011;38656;54.260;20.822;2023-07-29T03:49:35;126.10;;;26.60;;
52776;SDS011;38656;54.260;20.822;2023-07-29T03:52:01;185.05;;;29.55;;
52776;SDS011;38656;54.260;20.822;2023-07-29T03:54:27;210.48;;;28.98;;
52776;SDS011;38656;54.260;20.822;2023-07-29T03:56:53;224.50;;;29.35;;
52776;SDS011;38656;54.260;20.822;2023-07-29T03:59:19;146.35;;;28.60;;
52776;SDS011;38656;54.260;20.822;2023-07-29T04:01:47;137.55;;;28.15;;
52776;SDS011;38656;54.260;20.822;2023-07-29T04:04:13;158.13;;;27.40;;
52776;SDS011;38656;54.260;20.822;2023-07-29T04:06:39;93.07;;;29.73;;
52776;SDS011;38656;54.260;20.822;2023-07-29T04:09:05;321.30;;;32.15;;
52776;SDS011;38656;54.260;20.822;2023-07-29T04:11:33;217.80;;;32.25;;
52776;SDS011;38656;54.260;20.822;2023-07-29T04:13:59;225.43;;;36.75;;
52776;SDS011;38656;54.260;20.822;2023-07-29T04:16:25;248.50;;;37.63;;
52776;SDS011;38656;54.260;20.822;2023-07-29T04:18:51;220.60;;;42.05;;
52776;SDS011;38656;54.260;20.822;2023-07-29T04:21:17;162.75;;;40.85;;
52776;SDS011;38656;54.260;20.822;2023-07-29T04:23:43;150.38;;;41.65;;
52776;SDS011;38656;54.260;20.822;2023-07-29T04:26:09;106.40;;;42.42;;
52776;SDS011;38656;54.260;20.822;2023-07-29T04:28:35;120.30;;;40.25;;
52776;SDS011;38656;54.260;20.822;2023-07-29T04:31:01;125.95;;;41.92;;
52776;SDS011;38656;54.260;20.822;2023-07-29T04:33:28;75.88;;;43.72;;
52776;SDS011;38656;54.260;20.822;2023-07-29T04:35:54;91.22;;;44.13;;
52776;SDS011;38656;54.260;20.822;2023-07-29T04:38:20;89.75;;;43.58;;
52776;SDS011;38656;54.260;20.822;2023-07-29T04:40:48;96.30;;;45.83;;
52776;SDS011;38656;54.260;20.822;2023-07-29T04:43:14;92.53;;;50.10;;
52776;SDS011;38656;54.260;20.822;2023-07-29T04:45:43;106.28;;;47.53;;
52776;SDS011;38656;54.260;20.822;2023-07-29T04:48:10;113.68;;;49.85;;
52776;SDS011;38656;54.260;20.822;2023-07-29T04:50:36;96.90;;;51.58;;
52776;SDS011;38656;54.260;20.822;2023-07-29T04:53:02;92.40;;;50.20;;
52776;SDS011;38656;54.260;20.822;2023-07-29T04:55:28;132.50;;;56.78;;
52776;SDS011;38656;54.260;20.822;2023-07-29T04:57:54;130.85;;;62.00;;
52776;SDS011;38656;54.260;20.822;2023-07-29T05:00:20;113.20;;;58.15;;
52776;SDS011;38656;54.260;20.822;2023-07-29T05:02:46;131.63;;;60.92;;
52776;SDS011;38656;54.260;20.822;2023-07-29T05:05:12;112.57;;;57.83;;
52776;SDS011;38656;54.260;20.822;2023-07-29T05:07:38;124.63;;;61.55;;
52776;SDS011;38656;54.260;20.822;2023-07-29T05:10:05;100.95;;;61.10;;
52776;SDS011;38656;54.260;20.822;2023-07-29T05:12:31;106.95;;;59.17;;
52776;SDS011;38656;54.260;20.822;2023-07-29T05:14:57;113.40;;;62.83;;
52776;SDS011;38656;54.260;20.822;2023-07-29T05:17:23;112.20;;;63.17;;
52776;SDS011;38656;54.260;20.822;2023-07-29T05:19:49;121.68;;;62.33;;
52776;SDS011;38656;54.260;20.822;2023-07-29T05:22:15;112.68;;;61.63;;
52776;SDS011;38656;54.260;20.822;2023-07-29T05:24:41;102.13;;;61.63;;
52776;SDS011;38656;54.260;20.822;2023-07-29T05:27:07;100.05;;;61.15;;
52776;SDS011;38656;54.260;20.822;2023-07-29T05:29:33;86.43;;;57.15;;
52776;SDS011;38656;54.260;20.822;2023-07-29T05:32:00;55.65;;;49.42;;
52776;SDS011;38656;54.260;20.822;2023-07-29T05:34:26;48.50;;;43.33;;
52776;SDS011;38656;54.260;20.822;2023-07-29T05:36:52;42.20;;;38.05;;
52776;SDS011;38656;54.260;20.822;2023-07-29T05:39:18;36.15;;;32.42;;
52776;SDS011;38656;54.260;20.822;2023-07-29T05:41:44;28.00;;;25.50;;
52776;SDS011;38656;54.260;20.822;2023-07-29T05:44:11;25.65;;;22.80;;
52776;SDS011;38656;54.260;20.822;2023-07-29T05:46:38;23.48;;;20.67;;
52776;SDS011;38656;54.260;20.822;2023-07-29T05:49:04;20.42;;;18.45;;
52776;SDS011;38656;54.260;20.822;2023-07-29T05:51:30;19.40;;;17.83;;
52776;SDS011;38656;54.260;20.822;2023-07-29T05:53:56;16.85;;;15.30;;
52776;SDS011;38656;54.260;20.822;2023-07-29T05:56:22;15.65;;;14.20;;
52776;SDS011;38656;54.260;20.822;2023-07-29T05:58:48;16.05;;;14.55;;
52776;SDS011;38656;54.260;20.822;2023-07-29T06:01:14;15.57;;;14.25;;
52776;SDS011;38656;54.260;20.822;2023-07-29T06:03:40;14.27;;;12.57;;
52776;SDS011;38656;54.260;20.822;2023-07-29T06:06:06;13.50;;;12.30;;
52776;SDS011;38656;54.260;20.822;2023-07-29T06:08:32;13.25;;;11.98;;
52776;SDS011;38656;54.260;20.822;2023-07-29T06:10:59;14.75;;;12.23;;
52776;SDS011;38656;54.260;20.822;2023-07-29T06:13:25;11.02;;;10.02;;
52776;SDS011;38656;54.260;20.822;2023-07-29T06:15:51;13.13;;;10.32;;
52776;SDS011;38656;54.260;20.822;2023-07-29T06:18:18;12.23;;;10.98;;
52776;SDS011;38656;54.260;20.822;2023-07-29T06:20:44;12.88;;;11.45;;
52776;SDS011;38656;54.260;20.822;2023-07-29T06:23:10;10.32;;;9.40;;
52776;SDS011;38656;54.260;20.822;2023-07-29T06:25:36;12.27;;;11.02;;
52776;SDS011;38656;54.260;20.822;2023-07-29T06:28:02;10.68;;;9.70;;
52776;SDS011;38656;54.260;20.822;2023-07-29T06:30:28;10.50;;;9.20;;
52776;SDS011;38656;54.260;20.822;2023-07-29T06:32:54;10.02;;;9.02;;
52776;SDS011;38656;54.260;20.822;2023-07-29T06:35:20;11.23;;;8.55;;
52776;SDS011;38656;54.260;20.822;2023-07-29T06:37:46;8.55;;;7.75;;
52776;SDS011;38656;54.260;20.822;2023-07-29T06:40:12;8.30;;;7.45;;
52776;SDS011;38656;54.260;20.822;2023-07-29T06:42:38;12.30;;;6.85;;
52776;SDS011;38656;54.260;20.822;2023-07-29T06:45:05;6.80;;;6.18;;
52776;SDS011;38656;54.260;20.822;2023-07-29T06:47:31;7.30;;;5.75;;
52776;SDS011;38656;54.260;20.822;2023-07-29T06:49:57;8.30;;;6.38;;
52776;SDS011;38656;54.260;20.822;2023-07-29T06:52:24;7.75;;;5.75;;
52776;SDS011;38656;54.260;20.822;2023-07-29T06:54:50;7.57;;;5.95;;
52776;SDS011;38656;54.260;20.822;2023-07-29T06:57:16;6.97;;;5.57;;
52776;SDS011;38656;54.260;20.822;2023-07-29T06:59:42;9.95;;;5.50;;
52776;SDS011;38656;54.260;20.822;2023-07-29T07:02:08;5.45;;;4.93;;
52776;SDS011;38656;54.260;20.822;2023-07-29T07:04:34;7.65;;;4.95;;
52776;SDS011;38656;54.260;20.822;2023-07-29T07:07:00;5.78;;;4.55;;
52776;SDS011;38656;54.260;20.822;2023-07-29T07:09:26;5.60;;;4.72;;
52776;SDS011;38656;54.260;20.822;2023-07-29T07:11:52;7.43;;;4.80;;
52776;SDS011;38656;54.260;20.822;2023-07-29T07:14:18;9.02;;;5.05;;
52776;SDS011;38656;54.260;20.822;2023-07-29T07:16:44;5.25;;;4.40;;
52776;SDS011;38656;54.260;20.822;2023-07-29T07:19:10;6.95;;;3.80;;
52776;SDS011;38656;54.260;20.822;2023-07-29T07:21:37;5.00;;;4.45;;
52776;SDS011;38656;54.260;20.822;2023-07-29T07:24:03;10.98;;;8.68;;
52776;SDS011;38656;54.260;20.822;2023-07-29T07:26:29;6.40;;;4.07;;
52776;SDS011;38656;54.260;20.822;2023-07-29T07:28:55;4.40;;;4.00;;
52776;SDS011;38656;54.260;20.822;2023-07-29T07:31:21;13.63;;;4.15;;
52776;SDS011;38656;54.260;20.822;2023-07-29T07:33:48;5.25;;;4.18;;
52776;SDS011;38656;54.260;20.822;2023-07-29T07:36:14;11.55;;;10.43;;
52776;SDS011;38656;54.260;20.822;2023-07-29T07:38:40;22.70;;;15.18;;
52776;SDS011;38656;54.260;20.822;2023-07-29T07:41:06;43.83;;;39.20;;
52776;SDS011;38656;54.260;20.822;2023-07-29T07:43:32;112.65;;;62.50;;
52776;SDS011;38656;54.260;20.822;2023-07-29T07:45:59;26.05;;;22.67;;
52776;SDS011;38656;54.260;20.822;2023-07-29T07:48:28;20.10;;;17.42;;
52776;SDS011;38656;54.260;20.822;2023-07-29T07:50:54;19.33;;;16.73;;
52776;SDS011;38656;54.260;20.822;2023-07-29T07:53:20;20.25;;;18.27;;
52776;SDS011;38656;54.260;20.822;2023-07-29T07:55:47;15.55;;;8.73;;
52776;SDS011;38656;54.260;20.822;2023-07-29T07:58:13;33.88;;;23.25;;
52776;SDS011;38656;54.260;20.822;2023-07-29T08:00:39;21.13;;;18.92;;
52776;SDS011;38656;54.260;20.822;2023-07-29T08:03:06;6.53;;;4.32;;
52776;SDS011;38656;54.260;20.822;2023-07-29T08:05:32;14.80;;;11.00;;
52776;SDS011;38656;54.260;20.822;2023-07-29T08:07:58;27.73;;;23.08;;
52776;SDS011;38656;54.260;20.822;2023-07-29T08:10:24;8.82;;;7.80;;
52776;SDS011;38656;54.260;20.822;2023-07-29T08:12:51;7.53;;;5.47;;
52776;SDS011;38656;54.260;20.822;2023-07-29T08:15:17;19.00;;;16.08;;
52776;SDS011;38656;54.260;20.822;2023-07-29T08:17:43;29.40;;;23.73;;
52776;SDS011;38656;54.260;20.822;2023-07-29T08:20:09;9.07;;;6.30;;
52776;SDS011;38656;54.260;20.822;2023-07-29T08:22:35;14.98;;;8.93;;
52776;SDS011;38656;54.260;20.822;2023-07-29T08:25:01;7.03;;;5.78;;
52776;SDS011;38656;54.260;20.822;2023-07-29T08:27:27;7.10;;;5.22;;
52776;SDS011;38656;54.260;20.822;2023-07-29T08:29:53;5.15;;;4.68;;
52776;SDS011;38656;54.260;20.822;2023-07-29T08:32:20;21.13;;;13.32;;
52776;SDS011;38656;54.260;20.822;2023-07-29T08:34:49;16.40;;;8.60;;
52776;SDS011;38656;54.260;20.822;2023-07-29T08:37:15;9.82;;;4.80;;
52776;SDS011;38656;54.260;20.822;2023-07-29T08:39:41;14.13;;;8.43;;
52776;SDS011;38656;54.260;20.822;2023-07-29T08:42:08;10.80;;;6.35;;
52776;SDS011;38656;54.260;20.822;2023-07-29T08:44:36;32.38;;;21.95;;
52776;SDS011;38656;54.260;20.822;2023-07-29T08:47:05;5.28;;;3.53;;
52776;SDS011;38656;54.260;20.822;2023-07-29T08:49:32;10.68;;;8.55;;
52776;SDS011;38656;54.260;20.822;2023-07-29T08:51:58;7.68;;;4.45;;
52776;SDS011;38656;54.260;20.822;2023-07-29T08:54:24;6.95;;;4.55;;
52776;SDS011;38656;54.260;20.822;2023-07-29T08:56:50;21.52;;;18.88;;
52776;SDS011;38656;54.260;20.822;2023-07-29T08:59:19;13.63;;;9.80;;
52776;SDS011;38656;54.260;20.822;2023-07-29T09:01:46;16.77;;;14.13;;
52776;SDS011;38656;54.260;20.822;2023-07-29T09:04:12;11.60;;;9.95;;
52776;SDS011;38656;54.260;20.822;2023-07-29T09:06:39;15.90;;;11.23;;
52776;SDS011;38656;54.260;20.822;2023-07-29T09:09:07;3.60;;;3.10;;
52776;SDS011;38656;54.260;20.822;2023-07-29T09:11:33;14.07;;;7.32;;
52776;SDS011;38656;54.260;20.822;2023-07-29T09:13:59;41.92;;;13.55;;
52776;SDS011;38656;54.260;20.822;2023-07-29T09:16:25;7.50;;;5.82;;
52776;SDS011;38656;54.260;20.822;2023-07-29T09:18:51;11.25;;;10.13;;
52776;SDS011;38656;54.260;20.822;2023-07-29T09:21:22;5.18;;;2.50;;
52776;SDS011;38656;54.260;20.822;2023-07-29T09:23:50;6.70;;;3.40;;
52776;SDS011;38656;54.260;20.822;2023-07-29T09:26:23;13.20;;;10.57;;
52776;SDS011;38656;54.260;20.822;2023-07-29T09:28:51;91.05;;;9.40;;
52776;SDS011;38656;54.260;20.822;2023-07-29T09:31:19;7.60;;;4.50;;
52776;SDS011;38656;54.260;20.822;2023-07-29T09:33:45;3.15;;;2.85;;
52776;SDS011;38656;54.260;20.822;2023-07-29T09:36:11;3.35;;;2.65;;
52776;SDS011;38656;54.260;20.822;2023-07-29T09:38:38;9.90;;;5.68;;
52776;SDS011;38656;54.260;20.822;2023-07-29T09:41:04;12.02;;;2.97;;
52776;SDS011;38656;54.260;20.822;2023-07-29T09:43:34;7.13;;;2.72;;
52776;SDS011;38656;54.260;20.822;2023-07-29T09:46:01;10.85;;;5.95;;
52776;SDS011;38656;54.260;20.822;2023-07-29T09:48:27;3.75;;;2.67;;
52776;SDS011;38656;54.260;20.822;2023-07-29T09:50:54;3.38;;;2.08;;
52776;SDS011;38656;54.260;20.822;2023-07-29T09:53:20;3.30;;;2.42;;
52776;SDS011;38656;54.260;20.822;2023-07-29T09:55:47;3.35;;;2.70;;
52776;SDS011;38656;54.260;20.822;2023-07-29T09:58:15;8.55;;;7.68;;
52776;SDS011;38656;54.260;20.822;2023-07-29T10:00:44;6.50;;;3.80;;
52776;SDS011;38656;54.260;20.822;2023-07-29T10:03:11;7.38;;;4.35;;
52776;SDS011;38656;54.260;20.822;2023-07-29T10:05:37;3.10;;;2.72;;
52776;SDS011;38656;54.260;20.822;2023-07-29T10:08:04;7.13;;;3.35;;
52776;SDS011;38656;54.260;20.822;2023-07-29T10:10:30;7.97;;;4.57;;
52776;SDS011;38656;54.260;20.822;2023-07-29T10:12:56;4.68;;;3.75;;
52776;SDS011;38656;54.260;20.822;2023-07-29T10:15:22;3.63;;;3.30;;
52776;SDS011;38656;54.260;20.822;2023-07-29T10:17:49;3.25;;;2.95;;
52776;SDS011;38656;54.260;20.822;2023-07-29T10:20:15;3.83;;;3.35;;
52776;SDS011;38656;54.260;20.822;2023-07-29T10:22:42;2.25;;;2.05;;
52776;SDS011;38656;54.260;20.822;2023-07-29T10:25:18;2.50;;;2.30;;
52776;SDS011;38656;54.260;20.822;2023-07-29T10:30:14;5.30;;;4.57;;
52776;SDS011;38656;54.260;20.822;2023-07-29T10:32:43;3.25;;;2.58;;
52776;SDS011;38656;54.260;20.822;2023-07-29T10:35:10;3.25;;;2.28;;
52776;SDS011;38656;54.260;20.822;2023-07-29T10:37:36;3.47;;;2.90;;
52776;SDS011;38656;54.260;20.822;2023-07-29T10:40:05;4.00;;;2.47;;
52776;SDS011;38656;54.260;20.822;2023-07-29T10:42:31;3.30;;;2.65;;
52776;SDS011;38656;54.260;20.822;2023-07-29T10:44:57;2.70;;;2.50;;
52776;SDS011;38656;54.260;20.822;2023-07-29T10:47:24;4.07;;;2.33;;
52776;SDS011;38656;54.260;20.822;2023-07-29T10:54:54;2.63;;;2.40;;
52776;SDS011;38656;54.260;20.822;2023-07-29T10:57:38;6.70;;;3.47;;
52776;SDS011;38656;54.260;20.822;2023-07-29T11:00:07;5.75;;;2.38;;
52776;SDS011;38656;54.260;20.822;2023-07-29T11:02:37;2.38;;;2.15;;
52776;SDS011;38656;54.260;20.822;2023-07-29T11:05:07;2.78;;;2.50;;
52776;SDS011;38656;54.260;20.822;2023-07-29T11:07:43;2.47;;;2.28;;
52776;SDS011;38656;54.260;20.822;2023-07-29T11:10:11;4.13;;;1.90;;
52776;SDS011;38656;54.260;20.822;2023-07-29T11:15:13;3.55;;;2.22;;
52776;SDS011;38656;54.260;20.822;2023-07-29T11:20:06;6.78;;;2.65;;
52776;SDS011;38656;54.260;20.822;2023-07-29T11:22:33;6.40;;;4.50;;
52776;SDS011;38656;54.260;20.822;2023-07-29T11:24:59;2.53;;;2.00;;
52776;SDS011;38656;54.260;20.822;2023-07-29T11:27:25;4.57;;;2.75;;
52776;SDS011;38656;54.260;20.822;2023-07-29T11:29:56;3.15;;;2.28;;
52776;SDS011;38656;54.260;20.822;2023-07-29T11:32:23;5.13;;;2.22;;
52776;SDS011;38656;54.260;20.822;2023-07-29T11:34:49;2.42;;;2.22;;
52776;SDS011;38656;54.260;20.822;2023-07-29T11:37:15;9.85;;;2.35;;
52776;SDS011;38656;54.260;20.822;2023-07-29T11:39:41;2.25;;;2.08;;
52776;SDS011;38656;54.260;20.822;2023-07-29T11:42:10;2.05;;;1.95;;
52776;SDS011;38656;54.260;20.822;2023-07-29T11:44:36;4.15;;;2.50;;
52776;SDS011;38656;54.260;20.822;2023-07-29T11:47:06;2.47;;;2.08;;
52776;SDS011;38656;54.260;20.822;2023-07-29T11:49:33;2.50;;;2.30;;
52776;SDS011;38656;54.260;20.822;2023-07-29T11:51:59;2.70;;;1.95;;
52776;SDS011;38656;54.260;20.822;2023-07-29T11:54:26;2.30;;;2.10;;
52776;SDS011;38656;54.260;20.822;2023-07-29T11:56:53;5.60;;;2.67;;
52776;SDS011;38656;54.260;20.822;2023-07-29T11:59:19;2.53;;;2.05;;
52776;SDS011;38656;54.260;20.822;2023-07-29T12:01:45;6.57;;;2.30;;
52776;SDS011;38656;54.260;20.822;2023-07-29T12:04:12;6.28;;;2.03;;
52776;SDS011;38656;54.260;20.822;2023-07-29T12:06:38;3.28;;;1.90;;
52776;SDS011;38656;54.260;20.822;2023-07-29T12:09:04;4.35;;;1.90;;
52776;SDS011;38656;54.260;20.822;2023-07-29T12:11:31;2.35;;;2.15;;
52776;SDS011;38656;54.260;20.822;2023-07-29T12:13:59;4.22;;;2.42;;
52776;SDS011;38656;54.260;20.822;2023-07-29T12:16:25;2.40;;;2.20;;
52776;SDS011;38656;54.260;20.822;2023-07-29T12:18:51;3.78;;;1.95;;
52776;SDS011;38656;54.260;20.822;2023-07-29T12:21:18;6.70;;;1.88;;
52776;SDS011;38656;54.260;20.822;2023-07-29T12:23:44;4.63;;;2.05;;
52776;SDS011;38656;54.260;20.822;2023-07-29T12:26:10;4.13;;;2.10;;
52776;SDS011;38656;54.260;20.822;2023-07-29T12:28:36;2.75;;;2.15;;
52776;SDS011;38656;54.260;20.822;2023-07-29T12:31:06;2.55;;;2.10;;
52776;SDS011;38656;54.260;20.822;2023-07-29T12:33:34;1.95;;;1.80;;
52776;SDS011;38656;54.260;20.822;2023-07-29T12:36:01;3.50;;;2.10;;
52776;SDS011;38656;54.260;20.822;2023-07-29T12:38:28;3.97;;;2.22;;
52776;SDS011;38656;54.260;20.822;2023-07-29T12:40:54;2.95;;;2.65;;
52776;SDS011;38656;54.260;20.822;2023-07-29T12:43:20;2.47;;;1.70;;
52776;SDS011;38656;54.260;20.822;2023-07-29T12:45:48;2.17;;;1.83;;
52776;SDS011;38656;54.260;20.822;2023-07-29T12:48:15;2.55;;;1.88;;
52776;SDS011;38656;54.260;20.822;2023-07-29T12:50:41;5.00;;;2.90;;
52776;SDS011;38656;54.260;20.822;2023-07-29T12:53:07;2.08;;;1.90;;
52776;SDS011;38656;54.260;20.822;2023-07-29T12:55:37;2.30;;;2.10;;
52776;SDS011;38656;54.260;20.822;2023-07-29T12:58:03;2.50;;;2.05;;
52776;SDS011;38656;54.260;20.822;2023-07-29T13:00:29;3.13;;;2.00;;
52776;SDS011;38656;54.260;20.822;2023-07-29T13:02:55;2.35;;;1.90;;
52776;SDS011;38656;54.260;20.822;2023-07-29T13:05:21;2.85;;;2.03;;
52776;SDS011;38656;54.260;20.822;2023-07-29T13:07:47;2.63;;;2.42;;
52776;SDS011;38656;54.260;20.822;2023-07-29T13:10:13;3.45;;;2.30;;
52776;SDS011;38656;54.260;20.822;2023-07-29T13:12:40;2.38;;;2.03;;
52776;SDS011;38656;54.260;20.822;2023-07-29T13:15:06;2.95;;;2.00;;
52776;SDS011;38656;54.260;20.822;2023-07-29T13:17:33;3.65;;;2.20;;
52776;SDS011;38656;54.260;20.822;2023-07-29T13:19:59;2.55;;;2.35;;
52776;SDS011;38656;54.260;20.822;2023-07-29T13:22:25;2.65;;;2.20;;
52776;SDS011;38656;54.260;20.822;2023-07-29T13:24:51;4.55;;;2.40;;
52776;SDS011;38656;54.260;20.822;2023-07-29T13:27:17;2.45;;;2.25;;
52776;SDS011;38656;54.260;20.822;2023-07-29T13:29:43;1.85;;;1.73;;
52776;SDS011;38656;54.260;20.822;2023-07-29T13:32:09;4.82;;;2.10;;
52776;SDS011;38656;54.260;20.822;2023-07-29T13:34:35;2.53;;;2.22;;
52776;SDS011;38656;54.260;20.822;2023-07-29T13:37:02;2.47;;;2.25;;
52776;SDS011;38656;54.260;20.822;2023-07-29T13:39:28;2.55;;;1.73;;
52776;SDS011;38656;54.260;20.822;2023-07-29T13:41:54;3.90;;;1.90;;
52776;SDS011;38656;54.260;20.822;2023-07-29T13:44:20;5.13;;;4.03;;
52776;SDS011;38656;54.260;20.822;2023-07-29T13:46:46;2.40;;;2.20;;
52776;SDS011;38656;54.260;20.822;2023-07-29T13:49:12;2.22;;;2.03;;
52776;SDS011;38656;54.260;20.822;2023-07-29T13:51:38;3.10;;;2.08;;
52776;SDS011;38656;54.260;20.822;2023-07-29T13:54:04;5.43;;;1.90;;
52776;SDS011;38656;54.260;20.822;2023-07-29T13:56:31;2.17;;;1.67;;
52776;SDS011;38656;54.260;20.822;2023-07-29T13:58:57;1.83;;;1.73;;
52776;SDS011;38656;54.260;20.822;2023-07-29T14:01:23;1.88;;;1.70;;
52776;SDS011;38656;54.260;20.822;2023-07-29T14:03:49;6.63;;;2.45;;
52776;SDS011;38656;54.260;20.822;2023-07-29T14:06:15;12.15;;;3.13;;
52776;SDS011;38656;54.260;20.822;2023-07-29T14:08:41;3.45;;;1.95;;
52776;SDS011;38656;54.260;20.822;2023-07-29T14:11:08;2.63;;;2.08;;
52776;SDS011;38656;54.260;20.822;2023-07-29T14:13:34;10.45;;;2.30;;
52776;SDS011;38656;54.260;20.822;2023-07-29T14:16:03;4.95;;;2.22;;
52776;SDS011;38656;54.260;20.822;2023-07-29T14:18:29;15.70;;;9.77;;
52776;SDS011;38656;54.260;20.822;2023-07-29T14:20:56;7.38;;;2.63;;
52776;SDS011;38656;54.260;20.822;2023-07-29T14:23:22;9.80;;;2.40;;
52776;SDS011;38656;54.260;20.822;2023-07-29T14:25:48;2.42;;;2.20;;
52776;SDS011;38656;54.260;20.822;2023-07-29T14:28:14;2.35;;;2.15;;
52776;SDS011;38656;54.260;20.822;2023-07-29T14:30:40;2.47;;;1.92;;
52776;SDS011;38656;54.260;20.822;2023-07-29T14:33:06;2.65;;;2.45;;
52776;SDS011;38656;54.260;20.822;2023-07-29T14:35:32;5.07;;;2.50;;